sensor_id;sensor_type;location;lat;lon;timestamp;P1;durP1;ratioP1;P2;durP2;ratioP2
21569;SDS011;57598;50.888;4.746;2023-04-03T00:01:48;66.32;;;60.50;;
21569;SDS011;57598;50.888;4.746;2023-04-03T00:04:15;65.90;;;60.00;;
21569;SDS011;57598;50.888;4.746;2023-04-03T00:06:43;68.25;;;62.35;;
21569;SDS011;57598;50.888;4.746;2023-04-03T00:09:10;66.65;;;60.95;;
21569;SDS011;57598;50.888;4.746;2023-04-03T00:11:37;66.28;;;60.58;;
21569;SDS011;57598;50.888;4.746;2023-04-03T00:14:04;66.90;;;61.17;;
21569;SDS011;57598;50.888;4.746;2023-04-03T00:16:31;69.05;;;63.17;;
21569;SDS011;57598;50.888;4.746;2023-04-03T00:19:00;65.63;;;59.88;;
21569;SDS011;57598;50.888;4.746;2023-04-03T00:21:27;66.45;;;60.65;;
21569;SDS011;57598;50.888;4.746;2023-04-03T00:23:54;65.60;;;59.80;;
21569;SDS011;57598;50.888;4.746;2023-04-03T00:26:21;69.35;;;63.45;;
21569;SDS011;57598;50.888;4.746;2023-04-03T00:28:49;68.85;;;62.95;;
21569;SDS011;57598;50.888;4.746;2023-04-03T00:31:16;65.45;;;59.75;;
21569;SDS011;57598;50.888;4.746;2023-04-03T00:33:43;65.80;;;60.10;;
21569;SDS011;57598;50.888;4.746;2023-04-03T00:36:12;68.43;;;62.63;;
21569;SDS011;57598;50.888;4.746;2023-04-03T00:38:39;66.65;;;60.92;;
21569;SDS011;57598;50.888;4.746;2023-04-03T00:41:07;66.78;;;60.97;;
21569;SDS011;57598;50.888;4.746;2023-04-03T00:43:34;67.38;;;61.47;;
21569;SDS011;57598;50.888;4.746;2023-04-03T00:46:01;66.03;;;60.20;;
21569;SDS011;57598;50.888;4.746;2023-04-03T00:48:29;65.97;;;60.08;;
21569;SDS011;57598;50.888;4.746;2023-04-03T00:50:58;67.90;;;62.00;;
21569;SDS011;57598;50.888;4.746;2023-04-03T00:53:29;67.43;;;61.63;;
21569;SDS011;57598;50.888;4.746;2023-04-03T00:56:01;68.53;;;62.58;;
21569;SDS011;57598;50.888;4.746;2023-04-03T00:58:35;66.45;;;60.65;;
21569;SDS011;57598;50.888;4.746;2023-04-03T06:21:16;61.20;;;56.30;;
21569;SDS011;57598;50.888;4.746;2023-04-03T06:23:43;59.22;;;54.63;;
21569;SDS011;57598;50.888;4.746;2023-04-03T06:26:10;60.55;;;55.85;;
21569;SDS011;57598;50.888;4.746;2023-04-03T06:28:37;61.30;;;56.50;;
21569;SDS011;57598;50.888;4.746;2023-04-03T06:31:04;60.05;;;55.35;;
21569;SDS011;57598;50.888;4.746;2023-04-03T06:33:31;62.00;;;57.20;;
21569;SDS011;57598;50.888;4.746;2023-04-03T06:35:58;59.45;;;54.90;;
21569;SDS011;57598;50.888;4.746;2023-04-03T06:38:27;57.17;;;52.80;;
21569;SDS011;57598;50.888;4.746;2023-04-03T06:40:54;57.50;;;53.08;;
21569;SDS011;57598;50.888;4.746;2023-04-03T06:43:21;60.33;;;55.72;;
21569;SDS011;57598;50.888;4.746;2023-04-03T06:45:48;60.90;;;56.20;;
21569;SDS011;57598;50.888;4.746;2023-04-03T06:48:15;54.33;;;50.25;;
21569;SDS011;57598;50.888;4.746;2023-04-03T06:50:42;57.80;;;52.83;;
21569;SDS011;57598;50.888;4.746;2023-04-03T06:53:09;54.45;;;50.42;;
21569;SDS011;57598;50.888;4.746;2023-04-03T06:55:38;52.80;;;48.90;;
21569;SDS011;57598;50.888;4.746;2023-04-03T06:58:06;53.90;;;49.75;;
21569;SDS011;57598;50.888;4.746;2023-04-03T07:00:33;50.45;;;46.75;;
21569;SDS011;57598;50.888;4.746;2023-04-03T07:03:00;49.97;;;46.08;;
21569;SDS011;57598;50.888;4.746;2023-04-03T07:05:27;50.88;;;47.38;;
21569;SDS011;57598;50.888;4.746;2023-04-03T07:07:55;50.28;;;46.58;;
21569;SDS011;57598;50.888;4.746;2023-04-03T07:10:22;46.33;;;43.33;;
21569;SDS011;57598;50.888;4.746;2023-04-03T07:12:51;43.92;;;41.22;;
21569;SDS011;57598;50.888;4.746;2023-04-03T07:15:18;43.10;;;40.28;;
21569;SDS011;57598;50.888;4.746;2023-04-03T07:17:45;37.10;;;34.80;;
21569;SDS011;57598;50.888;4.746;2023-04-03T07:20:12;35.33;;;33.17;;
21569;SDS011;57598;50.888;4.746;2023-04-03T07:22:40;34.97;;;32.72;;
21569;SDS011;57598;50.888;4.746;2023-04-03T07:25:07;29.65;;;27.60;;
21569;SDS011;57598;50.888;4.746;2023-04-03T07:27:35;30.55;;;28.50;;
21569;SDS011;57598;50.888;4.746;2023-04-03T07:37:27;27.48;;;25.55;;
21569;SDS011;57598;50.888;4.746;2023-04-03T07:39:54;27.40;;;25.80;;
21569;SDS011;57598;50.888;4.746;2023-04-03T07:42:23;28.00;;;26.17;;
21569;SDS011;57598;50.888;4.746;2023-04-03T07:44:51;25.77;;;24.17;;
21569;SDS011;57598;50.888;4.746;2023-04-03T07:47:18;26.77;;;24.48;;
21569;SDS011;57598;50.888;4.746;2023-04-03T07:49:46;25.52;;;24.02;;
21569;SDS011;57598;50.888;4.746;2023-04-03T07:52:13;25.60;;;24.10;;
21569;SDS011;57598;50.888;4.746;2023-04-03T08:07:50;25.17;;;23.48;;
21569;SDS011;57598;50.888;4.746;2023-04-03T08:10:17;24.73;;;23.15;;
21569;SDS011;57598;50.888;4.746;2023-04-03T08:12:45;24.80;;;23.20;;
21569;SDS011;57598;50.888;4.746;2023-04-03T08:15:12;24.88;;;23.35;;
21569;SDS011;57598;50.888;4.746;2023-04-03T08:17:40;25.27;;;23.77;;
21569;SDS011;57598;50.888;4.746;2023-04-03T08:20:09;25.02;;;23.42;;
21569;SDS011;57598;50.888;4.746;2023-04-03T08:22:36;24.88;;;23.38;;
21569;SDS011;57598;50.888;4.746;2023-04-03T08:25:05;25.08;;;23.58;;
21569;SDS011;57598;50.888;4.746;2023-04-03T08:27:32;24.98;;;23.48;;
21569;SDS011;57598;50.888;4.746;2023-04-03T08:29:59;25.48;;;23.92;;
21569;SDS011;57598;50.888;4.746;2023-04-03T08:32:26;24.40;;;22.90;;
21569;SDS011;57598;50.888;4.746;2023-04-03T08:34:54;24.30;;;22.90;;
21569;SDS011;57598;50.888;4.746;2023-04-03T08:37:21;24.35;;;22.63;;
21569;SDS011;57598;50.888;4.746;2023-04-03T08:39:48;25.20;;;23.70;;
21569;SDS011;57598;50.888;4.746;2023-04-03T08:42:19;24.98;;;23.48;;
21569;SDS011;57598;50.888;4.746;2023-04-03T08:44:58;25.70;;;24.08;;
21569;SDS011;57598;50.888;4.746;2023-04-03T08:47:28;23.52;;;22.20;;
21569;SDS011;57598;50.888;4.746;2023-04-03T08:50:04;24.23;;;22.83;;
21569;SDS011;57598;50.888;4.746;2023-04-03T08:52:34;23.70;;;22.33;;
21569;SDS011;57598;50.888;4.746;2023-04-03T08:55:05;24.80;;;23.10;;
21569;SDS011;57598;50.888;4.746;2023-04-03T08:57:42;24.55;;;23.05;;
21569;SDS011;57598;50.888;4.746;2023-04-03T09:00:15;23.60;;;22.20;;
21569;SDS011;57598;50.888;4.746;2023-04-03T09:02:45;22.90;;;21.60;;
21569;SDS011;57598;50.888;4.746;2023-04-03T09:05:14;23.20;;;21.90;;
21569;SDS011;57598;50.888;4.746;2023-04-03T09:07:43;23.90;;;22.50;;
21569;SDS011;57598;50.888;4.746;2023-04-03T09:10:13;24.10;;;22.70;;
21569;SDS011;57598;50.888;4.746;2023-04-03T09:12:43;24.50;;;23.00;;
21569;SDS011;57598;50.888;4.746;2023-04-03T09:15:16;23.98;;;22.58;;
21569;SDS011;57598;50.888;4.746;2023-04-03T09:17:52;25.88;;;24.25;;
21569;SDS011;57598;50.888;4.746;2023-04-03T09:20:26;24.63;;;23.10;;
21569;SDS011;57598;50.888;4.746;2023-04-03T09:23:04;24.80;;;23.40;;
21569;SDS011;57598;50.888;4.746;2023-04-03T09:25:39;25.27;;;23.77;;
21569;SDS011;57598;50.888;4.746;2023-04-03T09:28:08;24.55;;;23.15;;
21569;SDS011;57598;50.888;4.746;2023-04-03T09:30:35;25.30;;;23.70;;
21569;SDS011;57598;50.888;4.746;2023-04-03T09:33:03;25.38;;;23.67;;
21569;SDS011;57598;50.888;4.746;2023-04-03T09:35:32;24.73;;;23.02;;
21569;SDS011;57598;50.888;4.746;2023-04-03T09:38:01;25.30;;;23.30;;
21569;SDS011;57598;50.888;4.746;2023-04-03T09:40:41;26.38;;;24.13;;
21569;SDS011;57598;50.888;4.746;2023-04-03T09:49:00;24.83;;;23.42;;
21569;SDS011;57598;50.888;4.746;2023-04-03T09:51:29;23.92;;;22.52;;
21569;SDS011;57598;50.888;4.746;2023-04-03T09:53:56;24.38;;;22.65;;
21569;SDS011;57598;50.888;4.746;2023-04-03T09:56:24;24.23;;;22.83;;
21569;SDS011;57598;50.888;4.746;2023-04-03T09:59:07;22.67;;;21.38;;
21569;SDS011;57598;50.888;4.746;2023-04-03T10:01:42;23.15;;;21.85;;
21569;SDS011;57598;50.888;4.746;2023-04-03T10:04:22;26.70;;;24.65;;
21569;SDS011;57598;50.888;4.746;2023-04-03T10:06:50;23.35;;;22.02;;
21569;SDS011;57598;50.888;4.746;2023-04-03T10:09:19;23.65;;;22.25;;
21569;SDS011;57598;50.888;4.746;2023-04-03T10:11:58;24.17;;;22.58;;
21569;SDS011;57598;50.888;4.746;2023-04-03T10:14:32;23.60;;;22.10;;
21569;SDS011;57598;50.888;4.746;2023-04-03T10:17:06;23.38;;;22.00;;
21569;SDS011;57598;50.888;4.746;2023-04-03T10:19:43;24.17;;;22.73;;
21569;SDS011;57598;50.888;4.746;2023-04-03T10:22:22;22.90;;;21.60;;
21569;SDS011;57598;50.888;4.746;2023-04-03T10:25:03;22.83;;;21.52;;
21569;SDS011;57598;50.888;4.746;2023-04-03T10:27:44;26.45;;;24.65;;
21569;SDS011;57598;50.888;4.746;2023-04-03T10:30:24;23.58;;;22.10;;
21569;SDS011;57598;50.888;4.746;2023-04-03T10:33:01;23.00;;;21.60;;
21569;SDS011;57598;50.888;4.746;2023-04-03T10:35:42;24.23;;;22.63;;
21569;SDS011;57598;50.888;4.746;2023-04-03T10:38:18;21.77;;;20.48;;
21569;SDS011;57598;50.888;4.746;2023-04-03T10:40:52;23.13;;;21.73;;
21569;SDS011;57598;50.888;4.746;2023-04-03T10:43:28;24.25;;;22.42;;
21569;SDS011;57598;50.888;4.746;2023-04-03T10:46:05;24.25;;;22.63;;
21569;SDS011;57598;50.888;4.746;2023-04-03T10:48:44;22.40;;;21.10;;
21569;SDS011;57598;50.888;4.746;2023-04-03T10:51:25;22.80;;;21.50;;
21569;SDS011;57598;50.888;4.746;2023-04-03T10:54:01;22.48;;;21.17;;
21569;SDS011;57598;50.888;4.746;2023-04-03T10:56:35;22.83;;;21.42;;
21569;SDS011;57598;50.888;4.746;2023-04-03T10:59:13;23.00;;;20.77;;
21569;SDS011;57598;50.888;4.746;2023-04-03T11:01:48;21.95;;;20.67;;
21569;SDS011;57598;50.888;4.746;2023-04-03T11:04:19;22.13;;;20.83;;
21569;SDS011;57598;50.888;4.746;2023-04-03T11:06:51;21.10;;;19.90;;
21569;SDS011;57598;50.888;4.746;2023-04-03T11:09:24;21.27;;;20.08;;
21569;SDS011;57598;50.888;4.746;2023-04-03T11:11:55;21.48;;;20.17;;
21569;SDS011;57598;50.888;4.746;2023-04-03T11:14:28;21.65;;;20.20;;
21569;SDS011;57598;50.888;4.746;2023-04-03T11:17:04;21.83;;;20.33;;
21569;SDS011;57598;50.888;4.746;2023-04-03T11:19:42;27.13;;;20.80;;
21569;SDS011;57598;50.888;4.746;2023-04-03T11:22:16;20.88;;;19.67;;
21569;SDS011;57598;50.888;4.746;2023-04-03T11:24:52;22.80;;;21.33;;
21569;SDS011;57598;50.888;4.746;2023-04-03T11:27:25;22.35;;;21.05;;
21569;SDS011;57598;50.888;4.746;2023-04-03T11:29:58;21.75;;;20.52;;
21569;SDS011;57598;50.888;4.746;2023-04-03T11:35:36;22.63;;;21.23;;
21569;SDS011;57598;50.888;4.746;2023-04-03T11:38:10;22.15;;;20.85;;
21569;SDS011;57598;50.888;4.746;2023-04-03T11:40:45;21.63;;;20.33;;
21569;SDS011;57598;50.888;4.746;2023-04-03T11:43:20;22.30;;;21.00;;
21569;SDS011;57598;50.888;4.746;2023-04-03T11:45:52;22.77;;;21.38;;
21569;SDS011;57598;50.888;4.746;2023-04-03T12:03:08;21.33;;;20.02;;
21569;SDS011;57598;50.888;4.746;2023-04-03T12:05:56;21.85;;;20.55;;
21569;SDS011;57598;50.888;4.746;2023-04-03T12:08:46;23.40;;;21.65;;
21569;SDS011;57598;50.888;4.746;2023-04-03T12:11:21;22.58;;;21.17;;
21569;SDS011;57598;50.888;4.746;2023-04-03T12:14:02;23.13;;;21.75;;
21569;SDS011;57598;50.888;4.746;2023-04-03T12:16:42;21.50;;;20.13;;
21569;SDS011;57598;50.888;4.746;2023-04-03T12:19:30;23.02;;;21.58;;
21569;SDS011;57598;50.888;4.746;2023-04-03T12:22:06;23.13;;;21.83;;
21569;SDS011;57598;50.888;4.746;2023-04-03T12:24:42;22.10;;;20.80;;
21569;SDS011;57598;50.888;4.746;2023-04-03T12:27:23;22.55;;;21.13;;
21569;SDS011;57598;50.888;4.746;2023-04-03T12:29:55;22.20;;;20.90;;
21569;SDS011;57598;50.888;4.746;2023-04-03T12:32:32;20.15;;;19.02;;
21569;SDS011;57598;50.888;4.746;2023-04-03T12:35:14;21.73;;;20.33;;
21569;SDS011;57598;50.888;4.746;2023-04-03T12:40:58;21.48;;;20.08;;
21569;SDS011;57598;50.888;4.746;2023-04-03T12:43:43;25.92;;;20.02;;
21569;SDS011;57598;50.888;4.746;2023-04-03T12:46:22;20.85;;;19.65;;
21569;SDS011;57598;50.888;4.746;2023-04-03T12:48:50;21.40;;;20.20;;
21569;SDS011;57598;50.888;4.746;2023-04-03T12:51:21;21.15;;;19.95;;
21569;SDS011;57598;50.888;4.746;2023-04-03T12:53:53;21.48;;;20.23;;
21569;SDS011;57598;50.888;4.746;2023-04-03T12:56:28;21.73;;;20.25;;
21569;SDS011;57598;50.888;4.746;2023-04-03T12:58:56;21.27;;;20.08;;
21569;SDS011;57598;50.888;4.746;2023-04-03T13:01:40;22.70;;;21.35;;
21569;SDS011;57598;50.888;4.746;2023-04-03T13:04:08;23.40;;;21.90;;
21569;SDS011;57598;50.888;4.746;2023-04-03T13:06:38;22.17;;;20.88;;
21569;SDS011;57598;50.888;4.746;2023-04-03T13:09:14;21.77;;;20.40;;
21569;SDS011;57598;50.888;4.746;2023-04-03T13:11:49;21.42;;;20.13;;
21569;SDS011;57598;50.888;4.746;2023-04-03T13:14:18;21.55;;;20.25;;
21569;SDS011;57598;50.888;4.746;2023-04-03T13:16:53;21.30;;;20.10;;
21569;SDS011;57598;50.888;4.746;2023-04-03T13:19:22;23.02;;;21.30;;
21569;SDS011;57598;50.888;4.746;2023-04-03T13:21:51;22.85;;;21.55;;
21569;SDS011;57598;50.888;4.746;2023-04-03T13:24:23;21.48;;;20.27;;
21569;SDS011;57598;50.888;4.746;2023-04-03T13:26:52;21.95;;;20.65;;
21569;SDS011;57598;50.888;4.746;2023-04-03T13:29:21;22.67;;;21.38;;
21569;SDS011;57598;50.888;4.746;2023-04-03T13:31:52;22.27;;;20.98;;
21569;SDS011;57598;50.888;4.746;2023-04-03T13:34:21;22.40;;;21.10;;
21569;SDS011;57598;50.888;4.746;2023-04-03T13:36:55;21.95;;;20.65;;
21569;SDS011;57598;50.888;4.746;2023-04-03T13:39:24;22.30;;;20.90;;
21569;SDS011;57598;50.888;4.746;2023-04-03T13:41:54;22.50;;;21.10;;
21569;SDS011;57598;50.888;4.746;2023-04-03T13:44:27;23.35;;;21.95;;
21569;SDS011;57598;50.888;4.746;2023-04-03T13:47:00;23.48;;;22.08;;
21569;SDS011;57598;50.888;4.746;2023-04-03T13:49:40;22.70;;;21.40;;
21569;SDS011;57598;50.888;4.746;2023-04-03T13:52:23;22.02;;;20.73;;
21569;SDS011;57598;50.888;4.746;2023-04-03T13:54:53;22.30;;;21.00;;
21569;SDS011;57598;50.888;4.746;2023-04-03T13:57:24;22.08;;;20.77;;
21569;SDS011;57598;50.888;4.746;2023-04-03T13:59:51;22.70;;;21.40;;
21569;SDS011;57598;50.888;4.746;2023-04-03T14:02:20;22.55;;;21.20;;
21569;SDS011;57598;50.888;4.746;2023-04-03T14:04:51;22.20;;;20.85;;
21569;SDS011;57598;50.888;4.746;2023-04-03T14:07:23;23.55;;;22.15;;
21569;SDS011;57598;50.888;4.746;2023-04-03T14:09:51;22.40;;;20.98;;
21569;SDS011;57598;50.888;4.746;2023-04-03T14:12:21;22.63;;;21.30;;
21569;SDS011;57598;50.888;4.746;2023-04-03T14:14:54;23.92;;;22.25;;
21569;SDS011;57598;50.888;4.746;2023-04-03T14:17:22;23.45;;;21.92;;
21569;SDS011;57598;50.888;4.746;2023-04-03T14:19:51;23.00;;;21.60;;
21569;SDS011;57598;50.888;4.746;2023-04-03T14:22:20;23.27;;;21.85;;
21569;SDS011;57598;50.888;4.746;2023-04-03T14:24:49;23.02;;;21.63;;
21569;SDS011;57598;50.888;4.746;2023-04-03T14:27:18;22.73;;;21.40;;
21569;SDS011;57598;50.888;4.746;2023-04-03T14:29:48;23.17;;;21.77;;
21569;SDS011;57598;50.888;4.746;2023-04-03T14:32:17;22.63;;;21.23;;
21569;SDS011;57598;50.888;4.746;2023-04-03T14:34:47;23.00;;;21.50;;
21569;SDS011;57598;50.888;4.746;2023-04-03T14:37:17;22.20;;;20.90;;
21569;SDS011;57598;50.888;4.746;2023-04-03T14:39:46;22.60;;;21.27;;
21569;SDS011;57598;50.888;4.746;2023-04-03T14:42:15;22.48;;;21.17;;
21569;SDS011;57598;50.888;4.746;2023-04-03T14:44:44;23.23;;;21.77;;
21569;SDS011;57598;50.888;4.746;2023-04-03T14:47:12;22.92;;;21.52;;
21569;SDS011;57598;50.888;4.746;2023-04-03T14:49:41;22.00;;;20.70;;
21569;SDS011;57598;50.888;4.746;2023-04-03T14:52:11;22.30;;;21.00;;
21569;SDS011;57598;50.888;4.746;2023-04-03T14:54:45;23.42;;;22.02;;
21569;SDS011;57598;50.888;4.746;2023-04-03T14:57:12;24.55;;;22.85;;
21569;SDS011;57598;50.888;4.746;2023-04-03T14:59:41;23.77;;;22.38;;
21569;SDS011;57598;50.888;4.746;2023-04-03T15:02:24;23.55;;;22.15;;
21569;SDS011;57598;50.888;4.746;2023-04-03T15:04:52;22.52;;;21.23;;
21569;SDS011;57598;50.888;4.746;2023-04-03T15:07:20;21.83;;;20.52;;
21569;SDS011;57598;50.888;4.746;2023-04-03T15:09:47;21.58;;;20.33;;
21569;SDS011;57598;50.888;4.746;2023-04-03T15:12:15;22.15;;;20.70;;
21569;SDS011;57598;50.888;4.746;2023-04-03T15:14:42;21.55;;;20.35;;
21569;SDS011;57598;50.888;4.746;2023-04-03T15:17:10;23.00;;;21.60;;
21569;SDS011;57598;50.888;4.746;2023-04-03T15:19:44;32.25;;;22.02;;
21569;SDS011;57598;50.888;4.746;2023-04-03T15:22:12;24.23;;;21.90;;
21569;SDS011;57598;50.888;4.746;2023-04-03T15:24:41;23.25;;;21.83;;
21569;SDS011;57598;50.888;4.746;2023-04-03T15:27:08;22.60;;;21.27;;
21569;SDS011;57598;50.888;4.746;2023-04-03T15:29:35;23.17;;;21.67;;
21569;SDS011;57598;50.888;4.746;2023-04-03T15:32:03;21.35;;;20.15;;
21569;SDS011;57598;50.888;4.746;2023-04-03T15:34:32;22.25;;;20.85;;
21569;SDS011;57598;50.888;4.746;2023-04-03T15:36:59;22.60;;;21.30;;
21569;SDS011;57598;50.888;4.746;2023-04-03T15:39:26;22.02;;;20.73;;
21569;SDS011;57598;50.888;4.746;2023-04-03T15:41:53;23.30;;;21.75;;
21569;SDS011;57598;50.888;4.746;2023-04-03T15:44:20;22.30;;;20.95;;
21569;SDS011;57598;50.888;4.746;2023-04-03T15:46:48;22.02;;;20.70;;
21569;SDS011;57598;50.888;4.746;2023-04-03T15:49:16;30.20;;;24.88;;
21569;SDS011;57598;50.888;4.746;2023-04-03T15:51:45;21.95;;;20.63;;
21569;SDS011;57598;50.888;4.746;2023-04-03T15:54:12;22.65;;;21.25;;
21569;SDS011;57598;50.888;4.746;2023-04-03T15:56:39;22.30;;;20.92;;
21569;SDS011;57598;50.888;4.746;2023-04-03T15:59:06;22.42;;;21.13;;
21569;SDS011;57598;50.888;4.746;2023-04-03T16:01:33;22.38;;;21.08;;
21569;SDS011;57598;50.888;4.746;2023-04-03T16:04:00;22.90;;;21.40;;
21569;SDS011;57598;50.888;4.746;2023-04-03T16:06:28;21.08;;;19.88;;
21569;SDS011;57598;50.888;4.746;2023-04-03T16:08:58;22.63;;;21.13;;
21569;SDS011;57598;50.888;4.746;2023-04-03T16:11:25;21.30;;;19.95;;
21569;SDS011;57598;50.888;4.746;2023-04-03T16:13:53;21.80;;;20.40;;
21569;SDS011;57598;50.888;4.746;2023-04-03T16:16:20;21.23;;;19.98;;
21569;SDS011;57598;50.888;4.746;2023-04-03T16:18:48;21.60;;;20.30;;
21569;SDS011;57598;50.888;4.746;2023-04-03T16:21:15;22.20;;;20.42;;
21569;SDS011;57598;50.888;4.746;2023-04-03T16:23:43;21.17;;;19.88;;
21569;SDS011;57598;50.888;4.746;2023-04-03T16:26:12;21.83;;;20.63;;
21569;SDS011;57598;50.888;4.746;2023-04-03T16:28:40;21.98;;;20.67;;
21569;SDS011;57598;50.888;4.746;2023-04-03T16:31:07;21.00;;;19.80;;
21569;SDS011;57598;50.888;4.746;2023-04-03T16:33:35;20.67;;;19.48;;
21569;SDS011;57598;50.888;4.746;2023-04-03T16:36:02;20.63;;;19.42;;
21569;SDS011;57598;50.888;4.746;2023-04-03T16:38:30;20.55;;;19.35;;
21569;SDS011;57598;50.888;4.746;2023-04-03T16:40:57;21.63;;;20.33;;
21569;SDS011;57598;50.888;4.746;2023-04-03T16:43:28;21.02;;;19.73;;
21569;SDS011;57598;50.888;4.746;2023-04-03T16:45:56;21.30;;;20.00;;
21569;SDS011;57598;50.888;4.746;2023-04-03T16:48:23;23.05;;;21.65;;
21569;SDS011;57598;50.888;4.746;2023-04-03T16:50:50;22.33;;;20.73;;
21569;SDS011;57598;50.888;4.746;2023-04-03T16:53:18;23.33;;;21.75;;
21569;SDS011;57598;50.888;4.746;2023-04-03T16:55:45;21.67;;;20.48;;
21569;SDS011;57598;50.888;4.746;2023-04-03T16:58:12;20.65;;;19.45;;
21569;SDS011;57598;50.888;4.746;2023-04-03T17:00:41;23.70;;;22.08;;
21569;SDS011;57598;50.888;4.746;2023-04-03T17:03:08;21.13;;;19.92;;
21569;SDS011;57598;50.888;4.746;2023-04-03T17:05:35;21.17;;;19.52;;
21569;SDS011;57598;50.888;4.746;2023-04-03T17:08:03;20.35;;;19.15;;
21569;SDS011;57598;50.888;4.746;2023-04-03T17:10:30;20.50;;;19.20;;
21569;SDS011;57598;50.888;4.746;2023-04-03T17:12:58;21.23;;;19.73;;
21569;SDS011;57598;50.888;4.746;2023-04-03T17:15:25;20.65;;;19.45;;
21569;SDS011;57598;50.888;4.746;2023-04-03T17:17:54;21.27;;;20.08;;
21569;SDS011;57598;50.888;4.746;2023-04-03T17:20:21;22.65;;;20.42;;
21569;SDS011;57598;50.888;4.746;2023-04-03T17:22:48;21.13;;;19.92;;
21569;SDS011;57598;50.888;4.746;2023-04-03T17:25:15;22.10;;;20.70;;
21569;SDS011;57598;50.888;4.746;2023-04-03T17:27:42;22.13;;;20.83;;
21569;SDS011;57598;50.888;4.746;2023-04-03T17:30:10;21.98;;;20.58;;
21569;SDS011;57598;50.888;4.746;2023-04-03T17:32:37;21.80;;;20.60;;
21569;SDS011;57598;50.888;4.746;2023-04-03T17:35:06;22.90;;;21.05;;
21569;SDS011;57598;50.888;4.746;2023-04-03T17:37:33;22.05;;;20.75;;
21569;SDS011;57598;50.888;4.746;2023-04-03T17:40:01;22.83;;;21.35;;
21569;SDS011;57598;50.888;4.746;2023-04-03T17:42:28;23.08;;;21.23;;
21569;SDS011;57598;50.888;4.746;2023-04-03T17:44:56;21.48;;;20.27;;
21569;SDS011;57598;50.888;4.746;2023-04-03T17:47:25;22.90;;;21.55;;
21569;SDS011;57598;50.888;4.746;2023-04-03T17:49:52;21.55;;;20.35;;
21569;SDS011;57598;50.888;4.746;2023-04-03T17:52:20;21.50;;;20.30;;
21569;SDS011;57598;50.888;4.746;2023-04-03T17:54:49;21.73;;;20.48;;
21569;SDS011;57598;50.888;4.746;2023-04-03T17:57:16;22.98;;;21.58;;
21569;SDS011;57598;50.888;4.746;2023-04-03T17:59:43;22.98;;;21.50;;
21569;SDS011;57598;50.888;4.746;2023-04-03T18:02:10;22.60;;;21.27;;
21569;SDS011;57598;50.888;4.746;2023-04-03T18:04:37;21.92;;;20.63;;
21569;SDS011;57598;50.888;4.746;2023-04-03T18:07:04;22.00;;;20.70;;
21569;SDS011;57598;50.888;4.746;2023-04-03T18:09:35;22.60;;;21.30;;
21569;SDS011;57598;50.888;4.746;2023-04-03T18:12:05;21.83;;;20.58;;
21569;SDS011;57598;50.888;4.746;2023-04-03T18:14:34;20.35;;;19.15;;
21569;SDS011;57598;50.888;4.746;2023-04-03T18:17:02;21.08;;;19.77;;
21569;SDS011;57598;50.888;4.746;2023-04-03T18:19:29;22.80;;;20.92;;
21569;SDS011;57598;50.888;4.746;2023-04-03T18:21:58;21.45;;;19.80;;
21569;SDS011;57598;50.888;4.746;2023-04-03T18:24:28;22.52;;;21.13;;
21569;SDS011;57598;50.888;4.746;2023-04-03T18:27:00;20.80;;;19.60;;
21569;SDS011;57598;50.888;4.746;2023-04-03T18:29:30;21.60;;;20.40;;
21569;SDS011;57598;50.888;4.746;2023-04-03T18:32:01;22.30;;;21.00;;
21569;SDS011;57598;50.888;4.746;2023-04-03T18:34:29;22.02;;;20.73;;
21569;SDS011;57598;50.888;4.746;2023-04-03T18:36:56;23.08;;;21.42;;
21569;SDS011;57598;50.888;4.746;2023-04-03T18:39:23;21.98;;;20.67;;
21569;SDS011;57598;50.888;4.746;2023-04-03T18:41:50;22.65;;;21.35;;
21569;SDS011;57598;50.888;4.746;2023-04-03T18:44:20;23.50;;;21.77;;
21569;SDS011;57598;50.888;4.746;2023-04-03T18:46:48;22.77;;;21.30;;
21569;SDS011;57598;50.888;4.746;2023-04-03T18:49:16;23.60;;;22.10;;
21569;SDS011;57598;50.888;4.746;2023-04-03T18:51:43;22.25;;;20.95;;
21569;SDS011;57598;50.888;4.746;2023-04-03T18:54:11;22.50;;;21.20;;
21569;SDS011;57598;50.888;4.746;2023-04-03T18:56:38;21.63;;;20.38;;
21569;SDS011;57598;50.888;4.746;2023-04-03T18:59:05;22.20;;;20.90;;
21569;SDS011;57598;50.888;4.746;2023-04-03T19:01:34;21.98;;;20.67;;
21569;SDS011;57598;50.888;4.746;2023-04-03T19:04:01;21.58;;;20.27;;
21569;SDS011;57598;50.888;4.746;2023-04-03T19:06:29;21.48;;;20.27;;
21569;SDS011;57598;50.888;4.746;2023-04-03T19:08:57;21.92;;;20.63;;
21569;SDS011;57598;50.888;4.746;2023-04-03T19:11:25;23.75;;;22.13;;
21569;SDS011;57598;50.888;4.746;2023-04-03T19:13:52;21.65;;;20.35;;
21569;SDS011;57598;50.888;4.746;2023-04-03T19:16:22;23.08;;;21.73;;
21569;SDS011;57598;50.888;4.746;2023-04-03T19:18:51;22.15;;;20.85;;
21569;SDS011;57598;50.888;4.746;2023-04-03T19:21:36;22.17;;;20.92;;
21569;SDS011;57598;50.888;4.746;2023-04-03T19:24:05;21.13;;;19.92;;
21569;SDS011;57598;50.888;4.746;2023-04-03T19:26:32;22.38;;;20.98;;
21569;SDS011;57598;50.888;4.746;2023-04-03T19:28:59;22.70;;;21.40;;
21569;SDS011;57598;50.888;4.746;2023-04-03T19:31:27;24.17;;;22.67;;
21569;SDS011;57598;50.888;4.746;2023-04-03T19:33:57;22.83;;;21.52;;
21569;SDS011;57598;50.888;4.746;2023-04-03T19:36:24;22.20;;;20.90;;
21569;SDS011;57598;50.888;4.746;2023-04-03T19:38:51;22.23;;;20.92;;
21569;SDS011;57598;50.888;4.746;2023-04-03T19:41:19;23.23;;;21.83;;
21569;SDS011;57598;50.888;4.746;2023-04-03T19:43:48;22.02;;;20.75;;
21569;SDS011;57598;50.888;4.746;2023-04-03T19:46:17;22.75;;;21.45;;
21569;SDS011;57598;50.888;4.746;2023-04-03T19:48:44;22.88;;;21.52;;
21569;SDS011;57598;50.888;4.746;2023-04-03T19:51:13;22.08;;;20.77;;
21569;SDS011;57598;50.888;4.746;2023-04-03T19:56:11;22.05;;;20.75;;
21569;SDS011;57598;50.888;4.746;2023-04-03T19:58:41;21.88;;;20.60;;
21569;SDS011;57598;50.888;4.746;2023-04-03T20:01:08;23.00;;;21.70;;
21569;SDS011;57598;50.888;4.746;2023-04-03T20:03:38;22.40;;;21.10;;
21569;SDS011;57598;50.888;4.746;2023-04-03T20:06:06;22.08;;;20.85;;
21569;SDS011;57598;50.888;4.746;2023-04-03T20:08:34;21.88;;;20.67;;
21569;SDS011;57598;50.888;4.746;2023-04-03T20:11:02;22.27;;;21.02;;
21569;SDS011;57598;50.888;4.746;2023-04-03T20:13:30;22.25;;;20.98;;
21569;SDS011;57598;50.888;4.746;2023-04-03T20:16:00;22.08;;;20.83;;
21569;SDS011;57598;50.888;4.746;2023-04-03T20:18:27;21.23;;;20.03;;
21569;SDS011;57598;50.888;4.746;2023-04-03T20:20:55;22.05;;;20.80;;
21569;SDS011;57598;50.888;4.746;2023-04-03T20:23:24;22.15;;;20.85;;
21569;SDS011;57598;50.888;4.746;2023-04-03T20:25:53;22.85;;;21.55;;
21569;SDS011;57598;50.888;4.746;2023-04-03T20:28:21;22.70;;;21.40;;
21569;SDS011;57598;50.888;4.746;2023-04-03T20:30:49;22.40;;;21.10;;
21569;SDS011;57598;50.888;4.746;2023-04-03T20:33:19;27.67;;;25.27;;
21569;SDS011;57598;50.888;4.746;2023-04-03T20:35:47;21.52;;;20.33;;
21569;SDS011;57598;50.888;4.746;2023-04-03T20:38:15;21.75;;;20.55;;
21569;SDS011;57598;50.888;4.746;2023-04-03T20:40:43;21.90;;;20.70;;
21569;SDS011;57598;50.888;4.746;2023-04-03T20:43:11;23.10;;;21.70;;
21569;SDS011;57598;50.888;4.746;2023-04-03T20:45:38;22.60;;;21.30;;
21569;SDS011;57598;50.888;4.746;2023-04-03T20:48:05;22.40;;;21.10;;